Time;durP1;ratioP1;P1;durP2;ratioP2;P2;SDS_P1;SDS_P2;PMS_P1;PMS_P2;Temp;Humidity;BMP_temperature;BMP_pressure;BME280_temperature;BME280_humidity;BME280_pressure;Samples;Min_cycle;Max_cycle;Signal;HPM_P1;HPM_P2
2024/01/28 00:02:17;;;;;;;;;;;;;;;1.49;100.00;103252.91;6273465;22;20093;-77
2024/01/28 00:04:42;;;;;;;;;;;;;;;1.51;100.00;103255.63;6247577;22;19903;-77
2024/01/28 00:07:07;;;;;;;;;;;;;;;1.51;100.00;103250.50;6245919;22;20247;-77
2024/01/28 00:09:32;;;;;;;;;;;;;;;1.48;100.00;103240.81;6274027;22;19954;-77
2024/01/28 00:11:58;;;;;;;;;;;;;;;1.47;100.00;103233.84;6273373;22;19911;-77
2024/01/28 00:14:23;;;;;;;;;;;;;;;1.46;100.00;103226.88;6273833;22;19903;-77
2024/01/28 00:16:49;;;;;;;;;;;;;;;1.45;100.00;103235.38;6246325;22;19907;-77
2024/01/28 00:19:14;;;;;;;;;;;;;;;1.44;100.00;103230.09;6246335;22;19907;-77
2024/01/28 00:21:39;;;;;;;;;;;;;;;1.45;100.00;103226.75;6273989;22;19913;-77
2024/01/28 00:24:06;;;;;;;;;;;;;;;1.45;100.00;103219.03;6274508;22;20314;-77
2024/01/28 00:26:36;;;;;;;;;;;;;;;1.45;100.00;103224.16;6246477;22;19910;-77
2024/01/28 00:29:01;;;;;;;;;;;;;;;1.45;100.00;103222.53;6273545;22;20436;-77
2024/01/28 00:31:26;;;;;;;;;;;;;;;1.45;100.00;103224.16;6246794;22;19942;-77
2024/01/28 00:33:52;;;;;;;;;;;;;;;1.45;100.00;103224.16;6269899;22;19903;-77
2024/01/28 00:36:17;;;;;;;;;;;;;;;1.44;100.00;103220.72;6271055;22;20337;-77
2024/01/28 00:38:43;;;;;;;;;;;;;;;1.44;100.00;103220.72;6269287;22;19909;-77
2024/01/28 00:41:08;;;;;;;;;;;;;;;1.42;100.00;103219.66;6243045;22;19922;-77
2024/01/28 00:43:33;;;;;;;;;;;;;;;1.41;100.00;103220.41;6270071;22;19922;-77
2024/01/28 00:45:58;;;;;;;;;;;;;;;1.38;100.00;103214.97;6270473;22;19911;-77
2024/01/28 00:48:23;;;;;;;;;;;;;;;1.35;100.00;103210.44;6241995;22;19907;-77
2024/01/28 00:50:49;;;;;;;;;;;;;;;1.33;100.00;103206.81;6269287;22;19914;-77
2024/01/28 00:53:15;;;;;;;;;;;;;;;1.32;100.00;103198.97;6271469;22;19978;-77
2024/01/28 00:55:40;;;;;;;;;;;;;;;1.32;100.00;103196.38;6273765;22;20643;-77
2024/01/28 00:58:06;;;;;;;;;;;;;;;1.30;100.00;103193.63;6273777;22;19982;-77
2024/01/28 01:00:31;;;;;;;;;;;;;;;1.29;100.00;103190.91;6246713;22;19907;-77
2024/01/28 01:02:56;;;;;;;;;;;;;;;1.28;100.00;103187.47;6273430;22;19907;-76
2024/01/28 01:05:21;;;;;;;;;;;;;;;1.25;100.00;103187.16;6246077;22;19962;-76
2024/01/28 01:07:47;;;;;;;;;;;;;;;1.24;100.00;103187.00;6273060;22;19911;-76
2024/01/28 01:10:12;;;;;;;;;;;;;;;1.23;100.00;103180.03;6273496;22;19914;-77
2024/01/28 01:12:37;;;;;;;;;;;;;;;1.21;100.00;103183.38;6274159;22;19914;-77
2024/01/28 01:15:03;;;;;;;;;;;;;;;1.21;100.00;103179.91;6273182;22;19914;-76
2024/01/28 01:17:28;;;;;;;;;;;;;;;1.22;100.00;103181.72;6246040;22;19977;-76
2024/01/28 01:19:53;;;;;;;;;;;;;;;1.23;100.00;103172.34;6273561;22;20226;-76
2024/01/28 01:22:19;;;;;;;;;;;;;;;1.20;100.00;103171.31;6273231;22;19914;-76
2024/01/28 01:24:44;;;;;;;;;;;;;;;1.18;100.00;103167.66;6272801;22;19910;-77
2024/01/28 01:27:09;;;;;;;;;;;;;;;1.18;100.00;103171.91;6272616;22;19946;-76
2024/01/28 01:29:35;;;;;;;;;;;;;;;1.17;100.00;103176.13;6273309;22;19907;-76
2024/01/28 01:32:00;;;;;;;;;;;;;;;1.15;100.00;103171.59;6244681;22;19907;-76
2024/01/28 01:34:25;;;;;;;;;;;;;;;1.13;100.00;103162.81;6272543;22;19903;-76
2024/01/28 01:36:50;;;;;;;;;;;;;;;1.13;100.00;103168.88;6273530;22;19907;-76
2024/01/28 01:39:16;;;;;;;;;;;;;;;1.15;100.00;103166.47;6272454;22;20342;-76
2024/01/28 01:41:42;;;;;;;;;;;;;;;1.15;100.00;103167.34;6273718;22;20329;-76
2024/01/28 01:44:07;;;;;;;;;;;;;;;1.13;100.00;103166.31;6272679;22;19911;-76
2024/01/28 01:46:33;;;;;;;;;;;;;;;1.14;100.00;103164.63;6273447;22;20325;-76
2024/01/28 01:48:58;;;;;;;;;;;;;;;1.13;100.00;103171.44;6246046;22;19914;-76
2024/01/28 01:51:24;;;;;;;;;;;;;;;1.12;100.00;103172.19;6246442;22;19907;-76
2024/01/28 01:53:50;;;;;;;;;;;;;;;1.10;100.00;103168.56;6272697;22;19907;-76
2024/01/28 01:56:16;;;;;;;;;;;;;;;1.07;100.00;103175.94;6273701;22;20314;-76
2024/01/28 01:58:42;;;;;;;;;;;;;;;1.05;100.00;103182.59;6272634;22;19910;-76
2024/01/28 02:01:08;;;;;;;;;;;;;;;1.02;100.00;103177.16;6246302;22;20008;-76
2024/01/28 02:03:33;;;;;;;;;;;;;;;0.99;100.00;103179.44;6273024;22;20326;-76
2024/01/28 02:05:58;;;;;;;;;;;;;;;0.96;100.00;103179.13;6273284;22;19962;-76
2024/01/28 02:08:24;;;;;;;;;;;;;;;0.93;100.00;103179.72;6273387;22;19903;-76
2024/01/28 02:10:49;;;;;;;;;;;;;;;0.90;100.00;103181.97;6272419;22;19911;-76
2024/01/28 02:13:14;;;;;;;;;;;;;;;0.84;100.00;103177.13;6272256;22;19913;-76
2024/01/28 02:15:40;;;;;;;;;;;;;;;0.74;100.00;103182.09;6273196;22;19910;-76
2024/01/28 02:18:05;;;;;;;;;;;;;;;0.67;100.00;103177.09;6273215;22;20341;-76
2024/01/28 02:20:31;;;;;;;;;;;;;;;0.60;100.00;103172.97;6273164;22;20330;-76
2024/01/28 02:22:56;;;;;;;;;;;;;;;0.51;100.00;103170.41;6273110;22;19907;-76
2024/01/28 02:25:22;;;;;;;;;;;;;;;0.47;100.00;103164.81;6244897;22;20325;-76
2024/01/28 02:27:47;;;;;;;;;;;;;;;0.42;100.00;103154.09;6245967;22;19903;-76
2024/01/28 02:30:13;;;;;;;;;;;;;;;0.41;100.00;103154.81;6272519;22;19966;-76
2024/01/28 02:32:45;;;;;;;;;;;;;;;0.39;100.00;103140.94;6272457;22;19903;-76
2024/01/28 02:35:11;;;;;;;;;;;;;;;0.38;100.00;103138.19;6273029;22;19907;-76
2024/01/28 02:37:36;;;;;;;;;;;;;;;0.35;100.00;103133.69;6273132;22;19903;-76
2024/01/28 02:40:01;;;;;;;;;;;;;;;0.36;100.00;103130.34;6273899;22;19915;-76
2024/01/28 02:42:26;;;;;;;;;;;;;;;0.40;100.00;103132.47;6272103;22;19915;-76
2024/01/28 02:44:51;;;;;;;;;;;;;;;0.39;100.00;103120.44;6273271;22;19907;-76
2024/01/28 02:47:17;;;;;;;;;;;;;;;0.39;100.00;103123.00;6273172;22;19949;-76
2024/01/28 02:49:42;;;;;;;;;;;;;;;0.40;100.00;103122.22;6246465;22;19911;-76
2024/01/28 02:52:07;;;;;;;;;;;;;;;0.41;100.00;103128.28;6272807;22;19960;-76
2024/01/28 02:54:32;;;;;;;;;;;;;;;0.43;100.00;103121.63;6272730;22;19982;-76
2024/01/28 02:56:58;;;;;;;;;;;;;;;0.44;100.00;103119.22;6272240;22;19977;-76
2024/01/28 02:59:23;;;;;;;;;;;;;;;0.43;100.00;103109.72;6246093;22;19914;-76
2024/01/28 03:01:49;;;;;;;;;;;;;;;0.43;100.00;103112.28;6273237;22;19907;-76
2024/01/28 03:04:14;;;;;;;;;;;;;;;0.41;100.00;103113.78;6272583;22;20404;-76
2024/01/28 03:06:40;;;;;;;;;;;;;;;0.42;100.00;103114.69;6272018;22;19907;-76
2024/01/28 03:09:05;;;;;;;;;;;;;;;0.43;100.00;103114.84;6272303;22;19903;-76
2024/01/28 03:11:31;;;;;;;;;;;;;;;0.45;100.00;103118.47;6245924;22;19950;-76
2024/01/28 03:13:56;;;;;;;;;;;;;;;0.45;100.00;103113.34;6244452;22;19979;-76
2024/01/28 03:16:21;;;;;;;;;;;;;;;0.44;100.00;103108.97;6273072;22;20380;-76
2024/01/28 03:18:46;;;;;;;;;;;;;;;0.41;100.00;103100.97;6245350;22;19910;-76
2024/01/28 03:21:12;;;;;;;;;;;;;;;0.39;100.00;103097.34;6272592;22;19910;-76
2024/01/28 03:23:37;;;;;;;;;;;;;;;0.33;100.00;103091.56;6273977;22;20376;-76
2024/01/28 03:26:02;;;;;;;;;;;;;;;0.27;100.00;103091.84;6274277;22;19907;-76
2024/01/28 03:28:28;;;;;;;;;;;;;;;0.25;100.00;103088.25;6274741;22;19910;-76
2024/01/28 03:30:53;;;;;;;;;;;;;;;0.22;100.00;103094.69;6273785;22;19914;-76
2024/01/28 03:33:18;;;;;;;;;;;;;;;0.21;100.00;103098.94;6274728;22;19903;-76
2024/01/28 03:35:43;;;;;;;;;;;;;;;0.18;100.00;103093.50;6273918;22;19903;-76
2024/01/28 03:38:08;;;;;;;;;;;;;;;0.12;100.00;103092.88;6274210;22;19985;-75
2024/01/28 03:40:34;;;;;;;;;;;;;;;0.05;100.00;103104.16;6274561;22;19942;-76
2024/01/28 03:42:59;;;;;;;;;;;;;;;-0.02;100.00;103099.16;6274310;22;19915;-76
2024/01/28 03:45:24;;;;;;;;;;;;;;;-0.10;100.00;103100.00;6273098;22;19903;-76
2024/01/28 03:47:50;;;;;;;;;;;;;;;-0.15;100.00;103096.06;6274321;22;20219;-76
2024/01/28 03:50:19;;;;;;;;;;;;;;;-0.17;100.00;103093.34;6246284;22;20360;-76
2024/01/28 03:52:45;;;;;;;;;;;;;;;-0.18;100.00;103101.78;6274958;22;19907;-76
2024/01/28 03:55:10;;;;;;;;;;;;;;;-0.24;100.00;103090.91;6247323;22;19907;-76
2024/01/28 03:57:39;;;;;;;;;;;;;;;-0.25;100.00;103091.66;6274342;22;19973;-76
2024/01/28 04:00:06;;;;;;;;;;;;;;;-0.29;100.00;103084.38;6274442;22;20322;-76
2024/01/28 04:02:31;;;;;;;;;;;;;;;-0.32;100.00;103082.41;6274067;22;19903;-76
2024/01/28 04:04:56;;;;;;;;;;;;;;;-0.32;100.00;103081.50;6274424;22;19960;-76
2024/01/28 04:07:22;;;;;;;;;;;;;;;-0.35;100.00;103082.09;6246273;22;19903;-76
2024/01/28 04:09:47;;;;;;;;;;;;;;;-0.39;100.00;103090.19;6274546;22;19909;-76
2024/01/28 04:12:12;;;;;;;;;;;;;;;-0.42;100.00;103082.19;6274141;22;19978;-76
2024/01/28 04:14:37;;;;;;;;;;;;;;;-0.45;100.00;103089.56;6274141;22;20502;-76
2024/01/28 04:17:03;;;;;;;;;;;;;;;-0.44;100.00;103091.41;6246331;22;19903;-76
2024/01/28 04:19:28;;;;;;;;;;;;;;;-0.46;100.00;103088.66;6274206;22;19903;-76
2024/01/28 04:21:53;;;;;;;;;;;;;;;-0.48;100.00;103086.69;6273720;22;20245;-76
2024/01/28 04:24:18;;;;;;;;;;;;;;;-0.54;100.00;103080.19;6245321;22;20258;-76
2024/01/28 04:26:43;;;;;;;;;;;;;;;-0.59;100.00;103080.47;6246294;22;19938;-76
2024/01/28 04:29:09;;;;;;;;;;;;;;;-0.64;100.00;103072.28;6273956;22;19933;-76
2024/01/28 04:31:34;;;;;;;;;;;;;;;-0.68;100.00;103065.03;6273771;22;19922;-76
2024/01/28 04:33:59;;;;;;;;;;;;;;;-0.69;100.00;103064.88;6273693;22;19907;-76
2024/01/28 04:36:27;;;;;;;;;;;;;;;-0.71;100.00;103055.38;6273266;22;19910;-76
2024/01/28 04:38:53;;;;;;;;;;;;;;;-0.69;100.00;103062.31;6273546;22;19998;-76
2024/01/28 04:41:18;;;;;;;;;;;;;;;-0.70;100.00;103056.28;6273741;22;19945;-76
2024/01/28 04:43:43;;;;;;;;;;;;;;;-0.72;100.00;103056.13;6273879;22;19911;-76
2024/01/28 04:46:08;;;;;;;;;;;;;;;-0.69;100.00;103054.66;6273831;22;20315;-76
2024/01/28 04:48:34;;;;;;;;;;;;;;;-0.69;100.00;103052.97;6273151;22;19993;-76
2024/01/28 04:50:59;;;;;;;;;;;;;;;-0.70;100.00;103046.03;6246066;22;20548;-76
2024/01/28 04:53:24;;;;;;;;;;;;;;;-0.71;100.00;103052.81;6245661;22;19941;-76
2024/01/28 04:55:49;;;;;;;;;;;;;;;-0.70;100.00;103038.34;6246359;22;19990;-76
2024/01/28 04:58:15;;;;;;;;;;;;;;;-0.74;100.00;103034.59;6273704;22;19907;-76
2024/01/28 05:00:40;;;;;;;;;;;;;;;-0.74;100.00;103043.91;6273989;22;19903;-76
2024/01/28 05:03:05;;;;;;;;;;;;;;;-0.76;100.00;103035.16;6245883;22;19907;-76
2024/01/28 05:05:30;;;;;;;;;;;;;;;-0.77;100.00;103041.03;6273522;22;19907;-76
2024/01/28 05:07:56;;;;;;;;;;;;;;;-0.79;100.00;103040.88;6246382;22;19907;-76
2024/01/28 05:10:21;;;;;;;;;;;;;;;-0.78;100.00;103041.75;6273411;22;20401;-76
2024/01/28 05:12:47;;;;;;;;;;;;;;;-0.77;100.00;103036.84;6274100;22;19980;-76
2024/01/28 05:15:16;;;;;;;;;;;;;;;-0.73;100.00;103044.06;6270915;22;19907;-76
2024/01/28 05:17:42;;;;;;;;;;;;;;;-0.73;100.00;103046.63;6274219;22;19903;-76
2024/01/28 05:20:11;;;;;;;;;;;;;;;-0.77;100.00;103048.69;6273068;22;20298;-76
2024/01/28 05:22:37;;;;;;;;;;;;;;;-0.79;100.00;103039.97;6273267;22;20045;-76
2024/01/28 05:25:02;;;;;;;;;;;;;;;-0.79;100.00;103037.41;6272668;22;19935;-76
2024/01/28 05:27:28;;;;;;;;;;;;;;;-0.81;100.00;103046.56;6273371;22;20240;-76
2024/01/28 05:29:55;;;;;;;;;;;;;;;-0.83;100.00;103038.72;6272814;22;19913;-76
2024/01/28 05:32:21;;;;;;;;;;;;;;;-0.84;100.00;103026.69;6246450;22;19993;-76
2024/01/28 05:34:46;;;;;;;;;;;;;;;-0.83;100.00;103025.03;6272472;22;19973;-76
2024/01/28 05:37:14;;;;;;;;;;;;;;;-0.79;100.00;103014.38;6273127;22;19903;-76
2024/01/28 05:39:40;;;;;;;;;;;;;;;-0.73;100.00;103009.88;6273221;22;19918;-76
2024/01/28 05:42:05;;;;;;;;;;;;;;;-0.70;100.00;103002.53;6273285;22;19903;-76
2024/01/28 05:44:30;;;;;;;;;;;;;;;-0.67;100.00;103004.50;6272534;22;19935;-76
2024/01/28 05:46:55;;;;;;;;;;;;;;;-0.66;100.00;103004.66;6245734;22;20310;-76
2024/01/28 05:49:21;;;;;;;;;;;;;;;-0.63;100.00;103004.06;6246340;22;20292;-75
2024/01/28 05:51:46;;;;;;;;;;;;;;;-0.61;100.00;102994.88;6245426;22;19981;-76
2024/01/28 05:54:11;;;;;;;;;;;;;;;-0.61;100.00;102995.81;6272514;22;19903;-76
2024/01/28 05:56:37;;;;;;;;;;;;;;;-0.58;100.00;103001.25;6271843;22;19935;-76
2024/01/28 05:59:02;;;;;;;;;;;;;;;-0.56;100.00;102994.63;6245365;22;19904;-76
2024/01/28 06:01:27;;;;;;;;;;;;;;;-0.53;100.00;102994.03;6246121;22;19910;-76
2024/01/28 06:03:52;;;;;;;;;;;;;;;-0.51;100.00;102976.25;6273108;22;19907;-76
2024/01/28 06:06:18;;;;;;;;;;;;;;;-0.49;100.00;102974.75;6273463;22;19910;-76
2024/01/28 06:08:43;;;;;;;;;;;;;;;-0.46;100.00;102967.41;6272138;22;19942;-75
2024/01/28 06:11:09;;;;;;;;;;;;;;;-0.45;100.00;102961.53;6272143;22;19907;-76
2024/01/28 06:13:34;;;;;;;;;;;;;;;-0.45;100.00;102952.22;6272667;22;19908;-76
2024/01/28 06:15:59;;;;;;;;;;;;;;;-0.43;100.00;102957.47;6245902;22;20301;-75
2024/01/28 06:18:24;;;;;;;;;;;;;;;-0.42;100.00;102955.06;6246097;22;19979;-75
2024/01/28 06:20:50;;;;;;;;;;;;;;;-0.39;100.00;102962.13;6272772;22;19935;-76
2024/01/28 06:23:15;;;;;;;;;;;;;;;-0.38;100.00;102956.28;6272727;22;19978;-76
2024/01/28 06:25:40;;;;;;;;;;;;;;;-0.37;100.00;102950.41;6245828;22;19953;-75
2024/01/28 06:28:05;;;;;;;;;;;;;;;-0.37;100.00;102952.97;6245674;22;20234;-75
2024/01/28 06:30:32;;;;;;;;;;;;;;;-0.37;100.00;102958.09;6270714;22;19907;-76
2024/01/28 06:32:57;;;;;;;;;;;;;;;-0.36;100.00;102952.22;6272258;22;19903;-75
2024/01/28 06:35:23;;;;;;;;;;;;;;;-0.37;100.00;102950.41;6244688;22;19904;-76
2024/01/28 06:37:48;;;;;;;;;;;;;;;-0.37;100.00;102953.88;6245376;22;19903;-76
2024/01/28 06:40:13;;;;;;;;;;;;;;;-0.38;100.00;102946.03;6272340;22;19903;-76
2024/01/28 06:42:38;;;;;;;;;;;;;;;-0.37;100.00;102945.28;6272705;22;19918;-75
2024/01/28 06:45:04;;;;;;;;;;;;;;;-0.36;100.00;102936.88;6273178;22;20238;-75
2024/01/28 06:47:29;;;;;;;;;;;;;;;-0.37;100.00;102932.47;6273015;22;20358;-75
2024/01/28 06:49:54;;;;;;;;;;;;;;;-0.37;100.00;102924.81;6244953;22;19989;-75
2024/01/28 06:52:19;;;;;;;;;;;;;;;-0.37;100.00;102932.47;6269943;22;19954;-75
2024/01/28 06:54:44;;;;;;;;;;;;;;;-0.38;100.00;102941.84;6271801;22;19907;-75
2024/01/28 06:57:10;;;;;;;;;;;;;;;-0.38;100.00;102938.34;6272724;22;19903;-76
2024/01/28 06:59:35;;;;;;;;;;;;;;;-0.41;100.00;102928.69;6273640;22;19911;-75
2024/01/28 07:02:00;;;;;;;;;;;;;;;-0.42;100.00;102936.22;6273899;22;19909;-75
2024/01/28 07:04:26;;;;;;;;;;;;;;;-0.43;100.00;102935.31;6246276;22;19981;-75
2024/01/28 07:06:51;;;;;;;;;;;;;;;-0.42;100.00;102937.16;6273993;22;19903;-76
2024/01/28 07:09:18;;;;;;;;;;;;;;;-0.42;100.00;102931.09;6273503;22;19907;-76
2024/01/28 07:11:44;;;;;;;;;;;;;;;-0.42;100.00;102931.09;6275206;22;20339;-75
2024/01/28 07:14:10;;;;;;;;;;;;;;;-0.42;100.00;102938.78;6248184;22;19954;-76
2024/01/28 07:16:35;;;;;;;;;;;;;;;-0.42;100.00;102931.09;6275097;22;19910;-76
2024/01/28 07:19:00;;;;;;;;;;;;;;;-0.42;100.00;102936.22;6275260;22;19978;-75
2024/01/28 07:21:26;;;;;;;;;;;;;;;-0.40;100.00;102948.44;6274939;22;19903;-75
2024/01/28 07:23:51;;;;;;;;;;;;;;;-0.42;100.00;102936.22;6274866;22;20338;-76
2024/01/28 07:26:17;;;;;;;;;;;;;;;-0.45;100.00;102939.41;6273770;22;20368;-76
2024/01/28 07:28:42;;;;;;;;;;;;;;;-0.45;100.00;102931.72;6274302;22;19903;-76
2024/01/28 07:31:09;;;;;;;;;;;;;;;-0.45;100.00;102936.84;6245815;22;19911;-75
2024/01/28 07:33:34;;;;;;;;;;;;;;;-0.44;100.00;102932.59;6274245;22;19910;-75
2024/01/28 07:36:00;;;;;;;;;;;;;;;-0.43;100.00;102931.88;6274336;22;19903;-75
2024/01/28 07:38:25;;;;;;;;;;;;;;;-0.43;100.00;102922.53;6274390;22;19930;-76
2024/01/28 07:40:50;;;;;;;;;;;;;;;-0.41;100.00;102925.22;6273403;22;19907;-76
2024/01/28 07:43:16;;;;;;;;;;;;;;;-0.39;100.00;102923.72;6241128;23;19923;-76
2024/01/28 07:45:42;;;;;;;;;;;;;;;-0.28;100.00;102920.59;6243342;23;20345;-75
2024/01/28 07:48:07;;;;;;;;;;;;;;;-0.20;100.00;102913.72;6242377;23;19930;-76
2024/01/28 07:50:33;;;;;;;;;;;;;;;-0.16;100.00;102910.66;6242781;23;20314;-75
2024/01/28 07:52:58;;;;;;;;;;;;;;;-0.14;100.00;102918.53;6238873;23;19941;-76
2024/01/28 07:55:24;;;;;;;;;;;;;;;-0.13;100.00;102913.56;6237512;22;20299;-75
2024/01/28 07:57:49;;;;;;;;;;;;;;;-0.09;100.00;102917.34;6242455;23;19899;-76
2024/01/28 08:00:14;;;;;;;;;;;;;;;-0.08;100.00;102917.47;6242754;23;20519;-75
2024/01/28 08:02:40;;;;;;;;;;;;;;;-0.03;100.00;102920.50;6242058;23;19908;-75
2024/01/28 08:05:05;;;;;;;;;;;;;;;0.03;100.00;102923.69;6243201;23;19903;-76
2024/01/28 08:07:31;;;;;;;;;;;;;;;0.08;100.00;102922.47;6243446;23;19914;-76
2024/01/28 08:09:56;;;;;;;;;;;;;;;0.12;100.00;102922.03;6242543;23;19904;-76
2024/01/28 08:12:21;;;;;;;;;;;;;;;0.13;100.00;102917.81;6241340;23;19943;-75
2024/01/28 08:14:46;;;;;;;;;;;;;;;0.14;100.00;102922.19;6241852;23;19911;-75
2024/01/28 08:17:12;;;;;;;;;;;;;;;0.15;100.00;102918.88;6242131;23;20314;-75
2024/01/28 08:19:38;;;;;;;;;;;;;;;0.19;100.00;102922.63;6242898;23;19915;-75
2024/01/28 08:22:04;;;;;;;;;;;;;;;0.23;100.00;102911.94;6241444;23;19910;-75
2024/01/28 08:24:29;;;;;;;;;;;;;;;0.29;100.00;102908.34;6242688;23;19978;-75
2024/01/28 08:26:55;;;;;;;;;;;;;;;0.40;100.00;102906.81;6242888;23;19935;-75
2024/01/28 08:29:20;;;;;;;;;;;;;;;0.45;100.00;102900.47;6241329;23;20394;-75
2024/01/28 08:31:45;;;;;;;;;;;;;;;0.58;100.00;102900.03;6242057;23;19934;-76
2024/01/28 08:34:10;;;;;;;;;;;;;;;1.48;100.00;102887.97;6240253;23;20276;-75
2024/01/28 08:36:36;;;;;;;;;;;;;;;3.20;100.00;102891.31;6241412;23;19916;-75
2024/01/28 08:39:03;;;;;;;;;;;;;;;4.84;100.00;102885.13;6241755;23;19978;-75
2024/01/28 08:41:29;;;;;;;;;;;;;;;6.05;100.00;102883.28;6240173;23;19904;-75
2024/01/28 08:43:54;;;;;;;;;;;;;;;7.06;100.00;102878.47;6240302;23;19915;-76
2024/01/28 08:46:20;;;;;;;;;;;;;;;7.44;96.14;102876.75;6241220;23;19911;-76
2024/01/28 08:48:45;;;;;;;;;;;;;;;7.17;95.25;102878.31;6241400;23;19899;-76
2024/01/28 08:51:10;;;;;;;;;;;;;;;7.65;93.53;102874.75;6242409;23;19998;-75
2024/01/28 08:53:35;;;;;;;;;;;;;;;8.17;93.09;102875.66;6241416;23;19904;-76
2024/01/28 08:56:01;;;;;;;;;;;;;;;8.51;90.03;102864.91;6242678;22;19910;-75
2024/01/28 08:58:26;;;;;;;;;;;;;;;8.88;87.26;102862.06;6240681;23;20366;-75
2024/01/28 09:00:51;;;;;;;;;;;;;;;9.17;85.20;102867.31;6240646;23;19904;-76
2024/01/28 09:03:16;;;;;;;;;;;;;;;9.58;85.83;102874.13;6242513;23;19907;-76
2024/01/28 09:05:42;;;;;;;;;;;;;;;9.11;84.45;102869.50;6242882;23;19908;-76
2024/01/28 09:08:07;;;;;;;;;;;;;;;8.73;86.47;102863.69;6242802;23;19903;-76
2024/01/28 09:10:33;;;;;;;;;;;;;;;8.83;86.96;102866.06;6242624;23;19903;-76
2024/01/28 09:12:58;;;;;;;;;;;;;;;9.22;85.24;102869.38;6243241;23;19904;-76
2024/01/28 09:15:23;;;;;;;;;;;;;;;9.83;84.93;102865.19;6242066;23;19957;-76
2024/01/28 09:17:48;;;;;;;;;;;;;;;10.43;82.95;102860.88;6241943;23;20238;-76
2024/01/28 09:20:14;;;;;;;;;;;;;;;11.08;81.77;102856.59;6242298;23;19935;-77
2024/01/28 09:22:39;;;;;;;;;;;;;;;11.65;79.18;102859.59;6242544;23;19903;-76
2024/01/28 09:25:04;;;;;;;;;;;;;;;11.74;79.43;102849.63;6242870;23;19934;-77
2024/01/28 09:27:30;;;;;;;;;;;;;;;11.20;76.78;102849.44;6241651;23;19958;-77
2024/01/28 09:29:55;;;;;;;;;;;;;;;11.23;79.15;102852.19;6242847;23;19950;-77
2024/01/28 09:32:20;;;;;;;;;;;;;;;11.49;79.24;102850.97;6241458;23;19961;-77
2024/01/28 09:34:46;;;;;;;;;;;;;;;11.86;76.21;102851.06;6240337;23;19948;-77
2024/01/28 09:37:11;;;;;;;;;;;;;;;12.31;76.49;102839.44;6241027;23;19935;-77
2024/01/28 09:39:36;;;;;;;;;;;;;;;12.81;74.97;102844.38;6241689;23;20077;-77
2024/01/28 09:42:02;;;;;;;;;;;;;;;13.14;72.71;102839.78;6243918;22;19957;-77
2024/01/28 09:44:27;;;;;;;;;;;;;;;13.00;71.28;102836.53;6246115;22;19922;-78
2024/01/28 09:46:53;;;;;;;;;;;;;;;12.30;72.52;102844.59;6272280;22;20246;-78
2024/01/28 09:49:19;;;;;;;;;;;;;;;11.11;72.35;102846.34;6268881;22;19903;-78
2024/01/28 09:51:44;;;;;;;;;;;;;;;9.85;74.70;102855.78;6269763;22;19918;-78
2024/01/28 09:54:12;;;;;;;;;;;;;;;8.79;76.65;102845.91;6244501;22;20318;-78
2024/01/28 09:56:37;;;;;;;;;;;;;;;7.88;78.03;102852.97;6272003;22;19911;-78
2024/01/28 09:59:04;;;;;;;;;;;;;;;7.19;80.67;102843.06;6242199;22;20238;-78
2024/01/28 10:01:31;;;;;;;;;;;;;;;6.58;82.55;102841.41;6271929;22;19906;-79
2024/01/28 10:03:57;;;;;;;;;;;;;;;6.06;82.46;102841.06;6245854;22;20326;-79
2024/01/28 10:06:22;;;;;;;;;;;;;;;5.68;85.46;102833.91;6271934;22;19914;-79
2024/01/28 10:08:47;;;;;;;;;;;;;;;5.38;86.11;102840.22;6269664;22;19903;-79
2024/01/28 10:11:14;;;;;;;;;;;;;;;5.11;85.95;102828.63;6269839;22;19907;-79
2024/01/28 10:13:39;;;;;;;;;;;;;;;4.89;86.72;102826.94;6241010;22;20346;-79
2024/01/28 10:16:05;;;;;;;;;;;;;;;4.75;87.89;102824.97;6270460;22;19903;-80
2024/01/28 10:18:31;;;;;;;;;;;;;;;4.63;88.39;102832.63;6269205;22;20391;-79
2024/01/28 10:20:56;;;;;;;;;;;;;;;4.52;88.89;102826.63;6268072;22;19974;-80
2024/01/28 10:23:21;;;;;;;;;;;;;;;4.42;90.02;102821.47;6246022;22;19935;-79
2024/01/28 10:25:49;;;;;;;;;;;;;;;4.33;90.25;102824.22;6245029;22;20242;-79
2024/01/28 10:28:17;;;;;;;;;;;;;;;4.25;90.86;102825.31;6272888;22;19903;-80
2024/01/28 10:30:42;;;;;;;;;;;;;;;4.18;90.70;102821.31;6273229;22;20322;-79
2024/01/28 10:33:08;;;;;;;;;;;;;;;4.14;90.74;102832.16;6273772;22;19961;-79
2024/01/28 10:35:33;;;;;;;;;;;;;;;4.09;90.59;102829.19;6271434;22;19907;-79
2024/01/28 10:37:59;;;;;;;;;;;;;;;4.08;90.99;102823.91;6274438;22;19962;-79
2024/01/28 10:40:34;;;;;;;;;;;;;;;4.08;91.23;102826.50;6246595;22;19914;-79
2024/01/28 10:43:01;;;;;;;;;;;;;;;4.10;91.69;102820.69;6270899;22;19911;-79
2024/01/28 10:45:27;;;;;;;;;;;;;;;4.17;91.92;102819.50;6274561;22;19966;-79
2024/01/28 10:47:53;;;;;;;;;;;;;;;4.20;92.09;102814.63;6273938;22;19903;-79
2024/01/28 10:50:19;;;;;;;;;;;;;;;4.25;92.31;102807.25;6246964;22;19938;-79
2024/01/28 10:52:44;;;;;;;;;;;;;;;4.29;92.19;102807.59;6274727;22;19911;-79
2024/01/28 10:55:10;;;;;;;;;;;;;;;4.33;92.50;102804.50;6246822;22;19907;-79
2024/01/28 10:57:39;;;;;;;;;;;;;;;4.37;92.50;102802.16;6274625;22;19913;-79
2024/01/28 11:00:05;;;;;;;;;;;;;;;4.41;92.62;102791.31;6247296;22;19910;-79
2024/01/28 11:02:31;;;;;;;;;;;;;;;4.44;92.58;102792.44;6274128;22;19911;-79
2024/01/28 11:04:57;;;;;;;;;;;;;;;4.50;92.92;102784.28;6274585;22;20002;-80
2024/01/28 11:07:24;;;;;;;;;;;;;;;4.56;93.05;102781.28;6274495;22;19903;-80
2024/01/28 11:09:50;;;;;;;;;;;;;;;4.64;92.80;102777.66;6274229;22;19904;-79
2024/01/28 11:12:15;;;;;;;;;;;;;;;4.70;92.81;102775.53;6274287;22;19907;-79
2024/01/28 11:14:40;;;;;;;;;;;;;;;4.75;92.94;102769.06;6274286;22;19910;-80
2024/01/28 11:17:09;;;;;;;;;;;;;;;4.81;92.26;102768.66;6246365;22;19907;-80
2024/01/28 11:19:34;;;;;;;;;;;;;;;4.86;92.66;102770.78;6273524;22;20282;-79
2024/01/28 11:22:02;;;;;;;;;;;;;;;4.91;92.72;102760.84;6273378;22;19918;-79
2024/01/28 11:24:28;;;;;;;;;;;;;;;4.97;92.88;102760.41;6273651;22;19911;-79
2024/01/28 11:26:55;;;;;;;;;;;;;;;5.01;93.53;102759.84;6246473;22;19907;-79
2024/01/28 11:29:21;;;;;;;;;;;;;;;5.04;93.65;102753.25;6273091;22;19903;-79
2024/01/28 11:31:46;;;;;;;;;;;;;;;5.08;93.29;102753.47;6245980;22;19911;-80
2024/01/28 11:34:19;;;;;;;;;;;;;;;5.11;93.57;102743.38;6273044;22;19915;-79
2024/01/28 11:36:45;;;;;;;;;;;;;;;5.16;93.33;102745.53;6272828;22;19908;-79
2024/01/28 11:39:12;;;;;;;;;;;;;;;5.21;93.81;102739.03;6272941;22;20219;-79
2024/01/28 11:41:38;;;;;;;;;;;;;;;5.29;92.87;102736.13;6244203;22;19906;-79
2024/01/28 11:44:04;;;;;;;;;;;;;;;5.34;92.13;102733.09;6273288;22;19919;-80
2024/01/28 11:46:30;;;;;;;;;;;;;;;5.39;92.98;102724.00;6273327;22;19903;-80
2024/01/28 11:48:55;;;;;;;;;;;;;;;5.46;92.76;102727.97;6246193;22;20330;-80
2024/01/28 11:51:20;;;;;;;;;;;;;;;5.52;92.29;102717.19;6273422;22;19965;-80
2024/01/28 11:53:45;;;;;;;;;;;;;;;5.58;92.22;102712.47;6273271;22;20388;-79
2024/01/28 11:56:11;;;;;;;;;;;;;;;5.64;91.76;102712.91;6273121;22;20274;-79
2024/01/28 11:58:36;;;;;;;;;;;;;;;5.70;91.07;102707.28;6273199;22;19933;-79
2024/01/28 12:01:02;;;;;;;;;;;;;;;5.77;92.04;102712.13;6273206;22;20027;-79
2024/01/28 12:03:27;;;;;;;;;;;;;;;5.83;92.06;102712.56;6273077;22;19914;-79
2024/01/28 12:05:52;;;;;;;;;;;;;;;5.87;92.13;102706.81;6273200;22;20357;-79
2024/01/28 12:08:27;;;;;;;;;;;;;;;5.96;91.25;102703.13;6273110;22;19913;-79
2024/01/28 12:10:59;;;;;;;;;;;;;;;6.02;91.59;102701.88;6245871;22;19908;-79
2024/01/28 12:13:24;;;;;;;;;;;;;;;6.09;91.41;102701.53;6272789;22;19906;-79
2024/01/28 12:15:50;;;;;;;;;;;;;;;6.15;90.91;102705.38;6246012;22;20238;-79
2024/01/28 12:18:15;;;;;;;;;;;;;;;6.21;90.69;102698.03;6273201;22;19931;-79
2024/01/28 12:20:40;;;;;;;;;;;;;;;6.28;90.09;102692.50;6246120;22;20472;-79
2024/01/28 12:23:06;;;;;;;;;;;;;;;6.33;90.18;102685.97;6272385;22;19910;-79
2024/01/28 12:25:34;;;;;;;;;;;;;;;6.39;90.14;102683.81;6245404;22;19904;-79
2024/01/28 12:27:59;;;;;;;;;;;;;;;6.43;89.75;102680.66;6273012;22;19907;-80